Terminal Aerodrome Forecast
Issued by NWS

Home | Current Version | Previous Version | Text Only | Print | Product List | Glossary On
Versions: 1 2 3 4 5 6 7 8 9 10 11 12 13 14 15
000
FTAK31 PAJN 180359 AAA
TAFAWG
TAF AMD
PAWG 180359Z 1804/1824 09006KT 6SM -RA OVC030
     FM181300 10004KT 5SM BR OVC050
     FM181800 08005KT P6SM BKN050
      AMD LTD TO CLD VIS AND WIND 1806/1815=

USA.gov is the U.S. government's official web portal to all federal, state and local government web resources and services.